Time;durP1;ratioP1;P1;durP2;ratioP2;P2;SDS_P1;SDS_P2;PMS_P1;PMS_P2;Temp;Humidity;BMP_temperature;BMP_pressure;BME280_temperature;BME280_humidity;BME280_pressure;Samples;Min_cycle;Max_cycle;Signal;HPM_P1;HPM_P2
2023/01/10 00:01:39;;;;;;;20.90;11.00;;;;;;;-128.00;-1.00;-1.00;101100;1304;1005435;-29
2023/01/10 00:04:04;;;;;;;26.30;12.00;;;;;;;-128.00;-1.00;-1.00;101125;1303;1004420;-31
2023/01/10 00:06:31;;;;;;;30.00;12.50;;;;;;;-128.00;-1.00;-1.00;100982;1304;1005331;-35
2023/01/10 00:08:58;;;;;;;19.30;10.00;;;;;;;-128.00;-1.00;-1.00;101164;1304;1005420;-35
2023/01/10 00:13:53;;;;;;;36.70;14.80;;;;;;;-128.00;-1.00;-1.00;101224;1304;1004189;-30
2023/01/10 00:16:19;;;;;;;18.40;10.00;;;;;;;-128.00;-1.00;-1.00;101109;1303;1004430;-30
2023/01/10 00:18:44;;;;;;;40.40;13.10;;;;;;;-128.00;-1.00;-1.00;101283;1304;1004294;-30
2023/01/10 00:21:10;;;;;;;22.50;12.10;;;;;;;-128.00;-1.00;-1.00;101165;1304;1004355;-34
2023/01/10 00:23:36;;;;;;;27.40;12.60;;;;;;;-128.00;-1.00;-1.00;101048;1304;1004797;-34
2023/01/10 00:26:01;;;;;;;31.70;13.30;;;;;;;-128.00;-1.00;-1.00;101039;1304;1004717;-34
2023/01/10 00:28:27;;;;;;;22.10;12.10;;;;;;;-128.00;-1.00;-1.00;101147;1304;1005255;-32
2023/01/10 00:30:54;;;;;;;22.30;12.30;;;;;;;-128.00;-1.00;-1.00;101163;1304;1003619;-34
2023/01/10 00:33:20;;;;;;;19.00;11.60;;;;;;;-128.00;-1.00;-1.00;101069;1304;1003531;-33
2023/01/10 00:35:46;;;;;;;21.20;13.30;;;;;;;-128.00;-1.00;-1.00;101008;1304;1003944;-34
2023/01/10 00:38:13;;;;;;;22.10;12.80;;;;;;;-128.00;-1.00;-1.00;101037;1304;1004001;-30
2023/01/10 00:40:39;;;;;;;16.20;10.40;;;;;;;-128.00;-1.00;-1.00;101119;1304;1004210;-33
2023/01/10 00:45:34;;;;;;;21.50;10.10;;;;;;;-128.00;-1.00;-1.00;101070;1304;1004867;-30
2023/01/10 00:47:59;;;;;;;17.00;9.40;;;;;;;-128.00;-1.00;-1.00;101012;1303;1004672;-34
2023/01/10 00:50:25;;;;;;;30.80;13.20;;;;;;;-128.00;-1.00;-1.00;101074;1303;1004588;-36
2023/01/10 00:52:50;;;;;;;21.80;11.70;;;;;;;-128.00;-1.00;-1.00;100964;1303;1005159;-30
2023/01/10 00:55:16;;;;;;;29.60;13.50;;;;;;;-128.00;-1.00;-1.00;101084;1303;1004447;-30
2023/01/10 00:57:42;;;;;;;30.60;17.10;;;;;;;-128.00;-1.00;-1.00;101026;1303;1004330;-29
2023/01/10 01:00:09;;;;;;;25.40;14.20;;;;;;;-128.00;-1.00;-1.00;101039;1303;1005166;-29
2023/01/10 01:02:35;;;;;;;30.10;14.60;;;;;;;-128.00;-1.00;-1.00;101026;1303;1004561;-29
2023/01/10 01:05:00;;;;;;;30.10;15.70;;;;;;;-128.00;-1.00;-1.00;101133;1303;1004435;-30
2023/01/10 01:07:27;;;;;;;21.90;12.80;;;;;;;-128.00;-1.00;-1.00;101126;1303;1004214;-29
2023/01/10 01:12:21;;;;;;;23.80;12.90;;;;;;;-128.00;-1.00;-1.00;101209;1303;1005194;-30
2023/01/10 01:14:47;;;;;;;27.20;14.10;;;;;;;-128.00;-1.00;-1.00;101037;1303;1004930;-34
2023/01/10 01:17:13;;;;;;;26.10;13.90;;;;;;;-128.00;-1.00;-1.00;101186;1303;1004891;-30
2023/01/10 01:19:39;;;;;;;17.70;9.40;;;;;;;-128.00;-1.00;-1.00;101118;1303;1004690;-31
2023/01/10 01:22:04;;;;;;;16.00;9.00;;;;;;;-128.00;-1.00;-1.00;101210;1303;1005029;-34
2023/01/10 01:24:30;;;;;;;18.40;10.10;;;;;;;-128.00;-1.00;-1.00;101012;1303;1004773;-30
2023/01/10 01:26:55;;;;;;;26.00;12.90;;;;;;;-128.00;-1.00;-1.00;101056;1303;1004328;-34
2023/01/10 01:29:21;;;;;;;14.50;8.30;;;;;;;-128.00;-1.00;-1.00;101036;1303;1004710;-30
2023/01/10 01:31:46;;;;;;;19.60;10.80;;;;;;;-128.00;-1.00;-1.00;100994;1303;1005578;-34
2023/01/10 01:34:12;;;;;;;28.80;13.10;;;;;;;-128.00;-1.00;-1.00;101070;1303;1004824;-30
2023/01/10 01:36:38;;;;;;;22.10;12.00;;;;;;;-128.00;-1.00;-1.00;101163;1303;1003472;-35
2023/01/10 01:39:05;;;;;;;31.20;15.60;;;;;;;-128.00;-1.00;-1.00;101171;1303;1004258;-34
2023/01/10 01:44:05;;;;;;;34.10;16.90;;;;;;;-128.00;-1.00;-1.00;101049;1303;1004780;-33
2023/01/10 01:46:30;;;;;;;57.50;23.70;;;;;;;-128.00;-1.00;-1.00;101145;1303;1005412;-33
2023/01/10 01:48:56;;;;;;;207.50;59.40;;;;;;;-128.00;-1.00;-1.00;101124;1303;1005014;-29
2023/01/10 01:51:25;;;;;;;120.90;38.30;;;;;;;-128.00;-1.00;-1.00;100872;1303;1004528;-33
2023/01/10 01:53:57;;;;;;;94.70;29.30;;;;;;;-128.00;-1.00;-1.00;100953;1303;1004503;-33
2023/01/10 01:56:27;;;;;;;52.80;19.40;;;;;;;-128.00;-1.00;-1.00;101088;1297;1004407;-30
2023/01/10 01:59:05;;;;;;;55.60;25.30;;;;;;;-128.00;-1.00;-1.00;101115;1303;1003860;-34
2023/01/10 02:01:30;;;;;;;44.70;23.00;;;;;;;-128.00;-1.00;-1.00;100815;1303;1003916;-30
2023/01/10 02:04:09;;;;;;;38.70;20.00;;;;;;;-128.00;-1.00;-1.00;101015;1303;1004600;-35
2023/01/10 02:06:35;;;;;;;40.30;23.20;;;;;;;-128.00;-1.00;-1.00;101176;1300;1004035;-35
2023/01/10 02:09:14;;;;;;;53.30;24.10;;;;;;;-128.00;-1.00;-1.00;101012;1303;1004869;-34
2023/01/10 02:11:40;;;;;;;71.60;37.40;;;;;;;-128.00;-1.00;-1.00;101185;1303;1004406;-30
2023/01/10 02:14:06;;;;;;;77.00;36.60;;;;;;;-128.00;-1.00;-1.00;101211;1303;1005013;-34
2023/01/10 02:16:31;;;;;;;65.20;32.60;;;;;;;-128.00;-1.00;-1.00;101118;1303;1004722;-30
2023/01/10 02:18:57;;;;;;;42.70;20.00;;;;;;;-128.00;-1.00;-1.00;101034;1303;1004469;-38
2023/01/10 02:21:47;;;;;;;35.20;19.20;;;;;;;-128.00;-1.00;-1.00;101150;1303;1004669;-34
2023/01/10 02:24:32;;;;;;;24.00;12.80;;;;;;;-128.00;-1.00;-1.00;101205;1303;1005230;-31
2023/01/10 02:27:19;;;;;;;25.60;14.90;;;;;;;-128.00;-1.00;-1.00;100825;1303;1004114;-34
2023/01/10 02:30:16;;;;;;;26.90;14.00;;;;;;;-128.00;-1.00;-1.00;101161;1303;1004838;-35
2023/01/10 02:32:45;;;;;;;15.30;8.60;;;;;;;-128.00;-1.00;-1.00;101038;1303;1004488;-30
2023/01/10 02:35:33;;;;;;;25.10;12.40;;;;;;;-128.00;-1.00;-1.00;100990;1303;1005182;-31
2023/01/10 02:38:21;;;;;;;18.20;11.10;;;;;;;-128.00;-1.00;-1.00;100980;1303;1004632;-30
2023/01/10 02:41:01;;;;;;;34.40;15.90;;;;;;;-128.00;-1.00;-1.00;100997;1303;1004538;-31
2023/01/10 02:43:30;;;;;;;18.90;10.00;;;;;;;-128.00;-1.00;-1.00;101122;1303;1004381;-35
2023/01/10 02:46:08;;;;;;;18.70;10.60;;;;;;;-128.00;-1.00;-1.00;101178;1303;1003924;-29
2023/01/10 02:48:35;;;;;;;16.00;9.60;;;;;;;-128.00;-1.00;-1.00;101080;1303;1004637;-33
2023/01/10 02:51:16;;;;;;;17.50;9.50;;;;;;;-128.00;-1.00;-1.00;101061;1303;1004665;-33
2023/01/10 02:53:45;;;;;;;18.80;8.90;;;;;;;-128.00;-1.00;-1.00;101257;1304;1004102;-33
2023/01/10 02:56:30;;;;;;;22.80;11.50;;;;;;;-128.00;-1.00;-1.00;100966;1303;1004114;-29
2023/01/10 02:59:15;;;;;;;23.70;10.30;;;;;;;-128.00;-1.00;-1.00;101105;1303;1004629;-30
2023/01/10 03:01:55;;;;;;;29.70;13.80;;;;;;;-128.00;-1.00;-1.00;101174;1304;1003994;-34
2023/01/10 03:04:44;;;;;;;31.70;13.90;;;;;;;-128.00;-1.00;-1.00;101225;1303;1004369;-31
2023/01/10 03:07:19;;;;;;;33.50;15.60;;;;;;;-128.00;-1.00;-1.00;101133;1304;1004224;-30
2023/01/10 03:09:56;;;;;;;31.20;14.40;;;;;;;-128.00;-1.00;-1.00;101051;1303;1004607;-34
2023/01/10 03:12:40;;;;;;;35.10;15.10;;;;;;;-128.00;-1.00;-1.00;101031;1303;1005304;-34
2023/01/10 03:15:06;;;;;;;;;;;;;;;-128.00;-1.00;-1.00;101062;1304;1004414;-34
2023/01/10 03:17:32;;;;;;;19.30;11.90;;;;;;;-128.00;-1.00;-1.00;101094;1304;1004618;-33
2023/01/10 03:20:00;;;;;;;28.40;14.30;;;;;;;-128.00;-1.00;-1.00;101144;1304;1004434;-30
2023/01/10 03:22:25;;;;;;;29.10;12.20;;;;;;;-128.00;-1.00;-1.00;101028;1304;1004540;-30
2023/01/10 03:24:52;;;;;;;20.30;11.90;;;;;;;-128.00;-1.00;-1.00;101180;1304;1003678;-34
2023/01/10 03:27:31;;;;;;;25.30;11.40;;;;;;;-128.00;-1.00;-1.00;101168;1304;1005014;-34
2023/01/10 03:30:07;;;;;;;23.40;12.10;;;;;;;-128.00;-1.00;-1.00;101065;1304;1004715;-30
2023/01/10 03:32:32;;;;;;;32.50;10.50;;;;;;;-128.00;-1.00;-1.00;101208;1304;1004586;-30
2023/01/10 03:34:58;;;;;;;24.00;11.10;;;;;;;-128.00;-1.00;-1.00;101033;1304;1003928;-34
2023/01/10 03:37:49;;;;;;;20.70;10.90;;;;;;;-128.00;-1.00;-1.00;101035;1303;1004552;-30
2023/01/10 03:40:27;;;;;;;31.40;12.00;;;;;;;-128.00;-1.00;-1.00;101013;1304;1004637;-30
2023/01/10 03:45:37;;;;;;;28.90;12.10;;;;;;;-128.00;-1.00;-1.00;101003;1304;1005004;-30
2023/01/10 03:48:02;;;;;;;25.90;12.20;;;;;;;-128.00;-1.00;-1.00;101072;1304;1004777;-30
2023/01/10 03:50:28;;;;;;;19.10;12.00;;;;;;;-128.00;-1.00;-1.00;101158;1304;1004404;-34
2023/01/10 03:52:54;;;;;;;24.60;11.40;;;;;;;-128.00;-1.00;-1.00;101085;1304;1004475;-29
2023/01/10 03:55:21;;;;;;;22.90;12.10;;;;;;;-128.00;-1.00;-1.00;101043;1304;1004519;-29
2023/01/10 03:57:47;;;;;;;34.40;14.00;;;;;;;-128.00;-1.00;-1.00;101136;1304;1004443;-33
2023/01/10 04:00:14;;;;;;;23.00;12.20;;;;;;;-128.00;-1.00;-1.00;101288;1304;1004061;-34
2023/01/10 04:02:39;;;;;;;22.60;13.10;;;;;;;-128.00;-1.00;-1.00;101075;1304;1004646;-30
2023/01/10 04:05:05;;;;;;;25.80;11.70;;;;;;;-128.00;-1.00;-1.00;101001;1304;1004144;-34
2023/01/10 04:07:31;;;;;;;22.90;13.40;;;;;;;-128.00;-1.00;-1.00;100993;1304;1004815;-30
2023/01/10 04:09:57;;;;;;;30.10;13.00;;;;;;;-128.00;-1.00;-1.00;100988;1304;1004893;-34
2023/01/10 04:12:22;;;;;;;20.40;12.30;;;;;;;-128.00;-1.00;-1.00;101139;1304;1004376;-34
2023/01/10 04:14:48;;;;;;;17.40;9.50;;;;;;;-128.00;-1.00;-1.00;100928;1304;1004144;-28
2023/01/10 04:17:14;;;;;;;18.90;12.00;;;;;;;-128.00;-1.00;-1.00;101113;1304;1004901;-29
2023/01/10 04:19:40;;;;;;;25.10;13.10;;;;;;;-128.00;-1.00;-1.00;101115;1304;1003986;-29
2023/01/10 04:22:07;;;;;;;25.30;13.20;;;;;;;-128.00;-1.00;-1.00;101014;1303;1005071;-31
2023/01/10 04:24:32;;;;;;;26.50;12.60;;;;;;;-128.00;-1.00;-1.00;101040;1303;1004896;-33
2023/01/10 04:26:58;;;;;;;21.50;12.10;;;;;;;-128.00;-1.00;-1.00;101074;1303;1005198;-34
2023/01/10 04:29:23;;;;;;;26.80;11.70;;;;;;;-128.00;-1.00;-1.00;101046;1303;1003836;-30
2023/01/10 04:31:49;;;;;;;41.00;14.10;;;;;;;-128.00;-1.00;-1.00;100961;1303;1003523;-29
2023/01/10 04:34:15;;;;;;;33.60;14.70;;;;;;;-128.00;-1.00;-1.00;100988;1303;1003987;-33
2023/01/10 04:36:41;;;;;;;23.10;14.10;;;;;;;-128.00;-1.00;-1.00;101049;1303;1004862;-31
2023/01/10 05:15:22;;;;;;;30.10;15.50;;;;;;;3.05;100.00;98888.28;104473;1296;557667;-29
2023/01/10 05:17:50;;;;;;;20.80;12.40;;;;;;;3.04;100.00;98892.38;104236;1302;429961;-33
2023/01/10 05:20:16;;;;;;;31.50;17.10;;;;;;;3.01;100.00;98894.92;104715;1301;23178;-35
2023/01/10 05:22:41;;;;;;;24.60;11.20;;;;;;;3.01;100.00;98898.87;104691;1303;22814;-34
2023/01/10 05:25:07;;;;;;;24.10;11.10;;;;;;;2.98;100.00;98903.56;104593;1301;23230;-31
2023/01/10 05:27:33;;;;;;;27.30;15.80;;;;;;;-128.00;-1.00;-1.00;101081;1303;1004308;-30
2023/01/10 05:29:59;;;;;;;31.20;15.00;;;;;;;-128.00;-1.00;-1.00;100999;1304;1004442;-34
2023/01/10 05:32:28;;;;;;;24.60;12.20;;;;;;;-128.00;-1.00;-1.00;101068;1303;1005415;-30
2023/01/10 05:34:58;;;;;;;34.40;15.10;;;;;;;-128.00;-1.00;-1.00;101211;1303;1004788;-34
2023/01/10 05:37:24;;;;;;;46.90;15.90;;;;;;;-128.00;-1.00;-1.00;100952;1303;1004577;-33
2023/01/10 05:39:50;;;;;;;33.90;16.90;;;;;;;-128.00;-1.00;-1.00;100987;1303;1004592;-29
2023/01/10 05:42:38;;;;;;;31.80;14.70;;;;;;;-128.00;-1.00;-1.00;100966;1304;1004759;-33
2023/01/10 05:45:04;;;;;;;33.60;16.00;;;;;;;-128.00;-1.00;-1.00;101084;1304;1005175;-29
2023/01/10 05:47:30;;;;;;;26.30;13.40;;;;;;;-128.00;-1.00;-1.00;101041;1303;1004596;-34
2023/01/10 05:49:57;;;;;;;20.50;11.40;;;;;;;-128.00;-1.00;-1.00;101017;1303;1005507;-29
2023/01/10 05:52:22;;;;;;;37.80;16.30;;;;;;;-128.00;-1.00;-1.00;101127;1303;1004276;-30
2023/01/10 05:54:48;;;;;;;29.40;11.40;;;;;;;-128.00;-1.00;-1.00;101045;1303;1004758;-30
2023/01/10 05:57:13;;;;;;;25.90;16.20;;;;;;;-128.00;-1.00;-1.00;100984;1304;1004639;-34
2023/01/10 05:59:39;;;;;;;31.50;16.10;;;;;;;-128.00;-1.00;-1.00;100973;1303;1004724;-34
2023/01/10 06:02:04;;;;;;;21.30;12.20;;;;;;;-128.00;-1.00;-1.00;101039;1303;1004137;-34
2023/01/10 06:04:30;;;;;;;22.60;12.20;;;;;;;-128.00;-1.00;-1.00;100961;1304;1004727;-34
2023/01/10 06:06:56;;;;;;;23.70;13.60;;;;;;;-128.00;-1.00;-1.00;101138;1304;1004921;-34
2023/01/10 06:09:22;;;;;;;26.40;14.40;;;;;;;-128.00;-1.00;-1.00;101090;1303;1004798;-34
2023/01/10 06:11:47;;;;;;;27.10;13.80;;;;;;;-128.00;-1.00;-1.00;100975;1303;1004712;-34
2023/01/10 06:14:17;;;;;;;21.60;12.20;;;;;;;-128.00;-1.00;-1.00;100957;1304;1005399;-30
2023/01/10 06:16:44;;;;;;;24.00;12.50;;;;;;;-128.00;-1.00;-1.00;100949;1304;1004478;-34
2023/01/10 06:19:11;;;;;;;22.60;11.90;;;;;;;-128.00;-1.00;-1.00;101062;1304;1004184;-31
2023/01/10 06:21:37;;;;;;;22.40;9.30;;;;;;;-128.00;-1.00;-1.00;101149;1304;1005005;-34
2023/01/10 06:24:03;;;;;;;24.00;12.80;;;;;;;-128.00;-1.00;-1.00;101001;1304;1004179;-30
2023/01/10 06:26:28;;;;;;;30.50;11.90;;;;;;;-128.00;-1.00;-1.00;101039;1304;1004637;-33
2023/01/10 06:28:54;;;;;;;14.80;8.20;;;;;;;-128.00;-1.00;-1.00;101090;1304;1004866;-29
2023/01/10 06:31:19;;;;;;;19.50;10.80;;;;;;;-128.00;-1.00;-1.00;101031;1304;1004006;-36
2023/01/10 06:33:45;;;;;;;19.70;11.30;;;;;;;-128.00;-1.00;-1.00;100977;1304;1004463;-34
2023/01/10 06:36:11;;;;;;;19.00;9.40;;;;;;;-128.00;-1.00;-1.00;101051;1304;1004314;-34
2023/01/10 06:38:36;;;;;;;21.80;9.10;;;;;;;-128.00;-1.00;-1.00;100909;1304;1005007;-32
2023/01/10 06:41:11;;;;;;;24.40;9.50;;;;;;;-128.00;-1.00;-1.00;101055;1304;1004158;-31
2023/01/10 06:43:44;;;;;;;17.80;9.00;;;;;;;-128.00;-1.00;-1.00;100906;1304;1005081;-34
2023/01/10 06:46:11;;;;;;;25.20;11.80;;;;;;;-128.00;-1.00;-1.00;100906;1301;1004046;-30
2023/01/10 06:48:37;;;;;;;21.20;11.50;;;;;;;-128.00;-1.00;-1.00;100918;1304;1004214;-29
2023/01/10 06:51:04;;;;;;;27.40;12.20;;;;;;;-128.00;-1.00;-1.00;101076;1304;1004489;-33
2023/01/10 06:53:29;;;;;;;21.60;11.20;;;;;;;-128.00;-1.00;-1.00;100948;1302;1004650;-30
2023/01/10 06:55:56;;;;;;;20.30;11.40;;;;;;;-128.00;-1.00;-1.00;100998;1304;1005389;-30
2023/01/10 06:58:22;;;;;;;22.40;11.20;;;;;;;-128.00;-1.00;-1.00;101085;1304;1004710;-30
2023/01/10 07:00:48;;;;;;;18.50;10.20;;;;;;;-128.00;-1.00;-1.00;100959;1304;1005030;-34
2023/01/10 07:03:13;;;;;;;23.90;10.80;;;;;;;-128.00;-1.00;-1.00;100928;1304;1004015;-30
2023/01/10 07:05:39;;;;;;;31.30;14.80;;;;;;;-128.00;-1.00;-1.00;101023;1304;1003426;-34
2023/01/10 07:08:04;;;;;;;17.30;9.90;;;;;;;-128.00;-1.00;-1.00;101038;1304;1005323;-34
2023/01/10 07:10:30;;;;;;;26.20;12.40;;;;;;;-128.00;-1.00;-1.00;101105;1304;1004634;-32
2023/01/10 07:12:56;;;;;;;29.60;12.60;;;;;;;-128.00;-1.00;-1.00;100929;1304;1003618;-33
2023/01/10 07:15:21;;;;;;;23.50;12.00;;;;;;;-128.00;-1.00;-1.00;101045;1304;1005068;-33
2023/01/10 07:17:47;;;;;;;21.00;10.20;;;;;;;-128.00;-1.00;-1.00;100979;1304;1004522;-29
2023/01/10 07:20:13;;;;;;;24.60;12.10;;;;;;;-128.00;-1.00;-1.00;100999;1304;1004722;-30
2023/01/10 07:22:38;;;;;;;22.10;12.80;;;;;;;-128.00;-1.00;-1.00;101106;1304;1004418;-29
2023/01/10 07:25:05;;;;;;;26.70;10.70;;;;;;;-128.00;-1.00;-1.00;101209;1304;1004745;-33
2023/01/10 07:27:31;;;;;;;27.80;12.30;;;;;;;-128.00;-1.00;-1.00;100991;1304;1004306;-34
2023/01/10 07:29:57;;;;;;;20.90;10.90;;;;;;;-128.00;-1.00;-1.00;100852;1304;1004735;-33
2023/01/10 07:32:23;;;;;;;23.30;13.90;;;;;;;-128.00;-1.00;-1.00;101089;1304;1004719;-33
2023/01/10 07:34:49;;;;;;;20.90;10.20;;;;;;;-128.00;-1.00;-1.00;101085;1304;1004868;-34
2023/01/10 07:37:14;;;;;;;22.00;10.30;;;;;;;-128.00;-1.00;-1.00;101001;1304;1004458;-36
2023/01/10 07:39:41;;;;;;;16.60;7.50;;;;;;;-128.00;-1.00;-1.00;101007;1304;1004834;-29
2023/01/10 07:42:11;;;;;;;23.70;11.30;;;;;;;-128.00;-1.00;-1.00;101067;1304;1005238;-30
2023/01/10 07:44:36;;;;;;;24.50;12.30;;;;;;;-128.00;-1.00;-1.00;100964;1304;1005188;-29
2023/01/10 07:47:02;;;;;;;24.30;10.90;;;;;;;-128.00;-1.00;-1.00;101029;1304;1003813;-30
2023/01/10 07:49:27;;;;;;;26.30;11.90;;;;;;;-128.00;-1.00;-1.00;100930;1304;1004389;-29
2023/01/10 07:51:53;;;;;;;32.50;14.70;;;;;;;-128.00;-1.00;-1.00;100860;1304;1004428;-30
2023/01/10 07:54:19;;;;;;;16.60;9.80;;;;;;;-128.00;-1.00;-1.00;100942;1304;1004455;-29
2023/01/10 07:56:46;;;;;;;19.00;10.40;;;;;;;-128.00;-1.00;-1.00;101131;1304;1004357;-30
2023/01/10 07:59:12;;;;;;;27.50;14.10;;;;;;;-128.00;-1.00;-1.00;100989;1304;1004558;-33
2023/01/10 08:01:38;;;;;;;21.80;9.60;;;;;;;-128.00;-1.00;-1.00;101028;1304;1003643;-34
2023/01/10 08:04:04;;;;;;;17.70;9.70;;;;;;;-128.00;-1.00;-1.00;101002;1304;1004645;-31
2023/01/10 08:06:30;;;;;;;21.40;11.50;;;;;;;-128.00;-1.00;-1.00;101094;1304;1004832;-35
2023/01/10 08:08:56;;;;;;;19.50;10.80;;;;;;;-128.00;-1.00;-1.00;100958;1304;1004729;-30
2023/01/10 08:11:21;;;;;;;26.90;12.30;;;;;;;-128.00;-1.00;-1.00;101118;1304;1003832;-31
2023/01/10 08:13:47;;;;;;;25.40;12.50;;;;;;;-128.00;-1.00;-1.00;101030;1304;1003962;-31
2023/01/10 08:16:14;;;;;;;24.50;12.40;;;;;;;-128.00;-1.00;-1.00;100935;1304;1004392;-34
2023/01/10 08:18:41;;;;;;;33.40;12.50;;;;;;;-128.00;-1.00;-1.00;101069;1304;1004807;-36
2023/01/10 08:21:08;;;;;;;22.60;10.60;;;;;;;-128.00;-1.00;-1.00;100952;1304;1004274;-31
2023/01/10 08:23:34;;;;;;;19.10;9.30;;;;;;;-128.00;-1.00;-1.00;100929;1304;1004632;-35
2023/01/10 08:26:00;;;;;;;25.10;13.50;;;;;;;-128.00;-1.00;-1.00;101011;1304;1004503;-33
2023/01/10 08:28:27;;;;;;;23.40;13.70;;;;;;;-128.00;-1.00;-1.00;101051;1304;1004794;-36
2023/01/10 08:30:54;;;;;;;28.80;13.00;;;;;;;-128.00;-1.00;-1.00;101163;1304;1004561;-31
2023/01/10 08:33:22;;;;;;;28.50;13.40;;;;;;;-128.00;-1.00;-1.00;101015;1300;1004519;-33
2023/01/10 08:35:48;;;;;;;17.40;10.00;;;;;;;-128.00;-1.00;-1.00;101024;1300;1004190;-31
2023/01/10 08:38:14;;;;;;;21.20;11.10;;;;;;;-128.00;-1.00;-1.00;100875;1304;1004521;-37
2023/01/10 08:40:40;;;;;;;12.60;7.00;;;;;;;-128.00;-1.00;-1.00;101046;1304;1004262;-37
2023/01/10 08:43:08;;;;;;;28.10;11.80;;;;;;;-128.00;-1.00;-1.00;101042;1304;1005217;-30
2023/01/10 08:45:34;;;;;;;14.00;8.90;;;;;;;-128.00;-1.00;-1.00;101001;1304;1004728;-35
2023/01/10 08:48:00;;;;;;;18.60;11.50;;;;;;;-128.00;-1.00;-1.00;101029;1301;1004755;-36
2023/01/10 08:50:26;;;;;;;19.70;9.90;;;;;;;-128.00;-1.00;-1.00;101070;1304;1004682;-33
2023/01/10 08:52:52;;;;;;;26.10;10.40;;;;;;;-128.00;-1.00;-1.00;101025;1304;1004897;-37
2023/01/10 08:55:18;;;;;;;15.90;8.80;;;;;;;-128.00;-1.00;-1.00;101160;1304;1005202;-32
2023/01/10 08:57:43;;;;;;;19.80;10.80;;;;;;;-128.00;-1.00;-1.00;101011;1304;1004802;-37
2023/01/10 09:00:11;;;;;;;32.10;12.80;;;;;;;-128.00;-1.00;-1.00;100993;1303;1004457;-36
2023/01/10 09:02:38;;;;;;;34.90;13.20;;;;;;;-128.00;-1.00;-1.00;100882;1304;1004606;-36
2023/01/10 09:05:04;;;;;;;24.60;9.90;;;;;;;-128.00;-1.00;-1.00;101100;1297;1004530;-35
2023/01/10 09:07:30;;;;;;;21.60;11.10;;;;;;;-128.00;-1.00;-1.00;100988;1304;1004725;-32
2023/01/10 09:09:55;;;;;;;41.40;13.30;;;;;;;-128.00;-1.00;-1.00;100787;1304;1004329;-36
2023/01/10 09:15:07;;;;;;;24.60;9.80;;;;;;;-128.00;-1.00;-1.00;101043;1304;1004993;-37
2023/01/10 09:17:32;;;;;;;25.70;10.40;;;;;;;-128.00;-1.00;-1.00;101022;1304;1004528;-34
2023/01/10 09:19:58;;;;;;;27.90;11.80;;;;;;;-128.00;-1.00;-1.00;100981;1304;1004227;-30
2023/01/10 09:22:26;;;;;;;16.60;9.30;;;;;;;-128.00;-1.00;-1.00;100983;1304;1004630;-31
2023/01/10 09:24:51;;;;;;;28.70;13.10;;;;;;;-128.00;-1.00;-1.00;101004;1304;1004615;-32
2023/01/10 09:27:17;;;;;;;25.60;9.10;;;;;;;-128.00;-1.00;-1.00;101046;1304;1004184;-31
2023/01/10 09:29:43;;;;;;;15.90;9.50;;;;;;;-128.00;-1.00;-1.00;100991;1304;1004695;-31
2023/01/10 09:32:08;;;;;;;18.90;9.50;;;;;;;-128.00;-1.00;-1.00;101042;1304;1004481;-32
2023/01/10 09:34:34;;;;;;;14.20;8.80;;;;;;;-128.00;-1.00;-1.00;100976;1304;1005464;-36
2023/01/10 09:37:00;;;;;;;15.90;6.70;;;;;;;-128.00;-1.00;-1.00;100982;1304;1004529;-35
2023/01/10 09:39:27;;;;;;;18.80;9.00;;;;;;;-128.00;-1.00;-1.00;100981;1304;1004770;-32
2023/01/10 09:42:05;;;;;;;19.50;8.60;;;;;;;-128.00;-1.00;-1.00;100837;1304;1004550;-37
2023/01/10 09:44:51;;;;;;;15.60;8.40;;;;;;;-128.00;-1.00;-1.00;100945;1298;1003574;-32
2023/01/10 09:47:36;;;;;;;14.90;7.70;;;;;;;-128.00;-1.00;-1.00;100986;1304;1004113;-33
2023/01/10 09:50:25;;;;;;;20.80;8.70;;;;;;;-128.00;-1.00;-1.00;100970;1304;1003517;-34
2023/01/10 09:52:54;;;;;;;29.30;8.00;;;;;;;-128.00;-1.00;-1.00;100858;1304;1004095;-32
2023/01/10 09:55:35;;;;;;;10.50;7.20;;;;;;;-128.00;-1.00;-1.00;101010;1297;1004209;-34
2023/01/10 09:58:03;;;;;;;12.30;6.80;;;;;;;-128.00;-1.00;-1.00;101013;1304;1005112;-36
2023/01/10 10:00:37;;;;;;;12.10;7.40;;;;;;;-128.00;-1.00;-1.00;101022;1304;1004859;-32
2023/01/10 10:03:05;;;;;;;9.50;5.50;;;;;;;-128.00;-1.00;-1.00;100980;1304;1004404;-36
2023/01/10 10:05:30;;;;;;;16.60;8.60;;;;;;;-128.00;-1.00;-1.00;100861;1304;1004455;-32
2023/01/10 10:08:01;;;;;;;14.10;9.10;;;;;;;-128.00;-1.00;-1.00;101000;1304;1004302;-32
2023/01/10 10:10:36;;;;;;;10.90;5.70;;;;;;;-128.00;-1.00;-1.00;100942;1304;1004523;-35
2023/01/10 10:13:15;;;;;;;15.20;7.20;;;;;;;-128.00;-1.00;-1.00;101005;1300;1003884;-32
2023/01/10 10:15:54;;;;;;;15.00;8.00;;;;;;;-128.00;-1.00;-1.00;100971;1300;1004771;-36
2023/01/10 10:18:29;;;;;;;14.70;9.30;;;;;;;-128.00;-1.00;-1.00;101015;1304;1003879;-37
2023/01/10 10:21:06;;;;;;;15.00;8.20;;;;;;;-128.00;-1.00;-1.00;101017;1297;1003587;-31
2023/01/10 10:23:58;;;;;;;12.00;8.20;;;;;;;-128.00;-1.00;-1.00;101052;1304;1003431;-30
2023/01/10 10:26:32;;;;;;;21.50;10.70;;;;;;;-128.00;-1.00;-1.00;101050;1304;1004931;-32
2023/01/10 10:29:18;;;;;;;13.50;9.20;;;;;;;-128.00;-1.00;-1.00;101045;1300;1005031;-36
2023/01/10 10:32:07;;;;;;;16.80;10.60;;;;;;;-128.00;-1.00;-1.00;101003;1304;1004515;-30
2023/01/10 10:34:39;;;;;;;17.00;9.30;;;;;;;-128.00;-1.00;-1.00;101065;1304;1004818;-32
2023/01/10 10:37:16;;;;;;;23.80;10.20;;;;;;;-128.00;-1.00;-1.00;100914;1304;1004892;-35
2023/01/10 10:39:46;;;;;;;14.50;8.40;;;;;;;-128.00;-1.00;-1.00;100969;1304;1005567;-36
2023/01/10 10:42:13;;;;;;;15.50;8.60;;;;;;;-128.00;-1.00;-1.00;100898;1304;1004203;-37
2023/01/10 10:44:48;;;;;;;13.50;7.70;;;;;;;-128.00;-1.00;-1.00;100984;1304;1005308;-31
2023/01/10 10:47:19;;;;;;;13.10;7.60;;;;;;;-128.00;-1.00;-1.00;100963;1304;1004488;-32
2023/01/10 10:50:04;;;;;;;15.20;8.40;;;;;;;-128.00;-1.00;-1.00;101019;1304;1004289;-37
2023/01/10 10:52:34;;;;;;;12.30;7.00;;;;;;;-128.00;-1.00;-1.00;101214;1304;1003585;-32
2023/01/10 10:54:59;;;;;;;10.90;6.10;;;;;;;-128.00;-1.00;-1.00;101013;1304;1004085;-35
2023/01/10 10:57:27;;;;;;;10.40;8.10;;;;;;;-128.00;-1.00;-1.00;101022;1304;1004079;-38
2023/01/10 10:59:53;;;;;;;16.20;8.60;;;;;;;-128.00;-1.00;-1.00;101030;1304;1004628;-32
2023/01/10 11:02:22;;;;;;;18.30;9.40;;;;;;;-128.00;-1.00;-1.00;101100;1304;1004193;-31
2023/01/10 11:44:48;;;;;;;23.60;14.50;;;;;;;4.56;100.00;99405.49;104541;1305;556446;-31
2023/01/10 11:47:19;;;;;;;22.70;12.80;;;;;;;-21.79;79.80;79513.10;103722;1304;1003110;-30
2023/01/10 11:49:45;;;;;;;23.00;12.60;;;;;;;-128.00;-1.00;-1.00;101157;1305;1004270;-30
2023/01/10 11:52:26;;;;;;;16.00;11.60;;;;;;;-128.00;-1.00;-1.00;101091;1305;1003259;-30
2023/01/10 11:54:55;;;;;;;17.30;10.60;;;;;;;-128.00;-1.00;-1.00;101004;1305;1003066;-35
2023/01/10 11:57:23;;;;;;;17.70;10.90;;;;;;;-128.00;-1.00;-1.00;101103;1305;1005183;-35
2023/01/10 11:59:51;;;;;;;14.30;8.20;;;;;;;-128.00;-1.00;-1.00;101089;1298;1003109;-31
2023/01/10 12:02:24;;;;;;;12.90;7.60;;;;;;;-128.00;-1.00;-1.00;101156;1305;1004929;-32
2023/01/10 12:04:50;;;;;;;12.20;7.80;;;;;;;-128.00;-1.00;-1.00;101090;1305;1003602;-34
2023/01/10 12:07:17;;;;;;;16.30;9.40;;;;;;;-128.00;-1.00;-1.00;101061;1305;1002751;-33
2023/01/10 12:09:53;;;;;;;9.70;6.30;;;;;;;-128.00;-1.00;-1.00;101102;1305;1003735;-30
2023/01/10 12:12:24;;;;;;;13.50;7.70;;;;;;;-128.00;-1.00;-1.00;101024;1305;1003204;-36
2023/01/10 12:14:50;;;;;;;13.80;8.90;;;;;;;-128.00;-1.00;-1.00;101163;1284;1003936;-35
2023/01/10 12:17:21;;;;;;;16.00;8.40;;;;;;;-128.00;-1.00;-1.00;101048;1305;1002810;-31
2023/01/10 12:19:48;;;;;;;16.50;8.20;;;;;;;-128.00;-1.00;-1.00;101107;1303;1002739;-34
2023/01/10 12:22:14;;;;;;;20.60;10.00;;;;;;;-128.00;-1.00;-1.00;101130;1305;1003576;-35
2023/01/10 12:24:42;;;;;;;13.80;8.40;;;;;;;-128.00;-1.00;-1.00;101126;1305;1002825;-35
2023/01/10 12:27:13;;;;;;;12.20;7.80;;;;;;;-128.00;-1.00;-1.00;101113;1298;1004175;-35
2023/01/10 12:29:42;;;;;;;15.60;7.70;;;;;;;-128.00;-1.00;-1.00;101069;1305;1002651;-31
2023/01/10 12:32:19;;;;;;;11.80;9.60;;;;;;;-128.00;-1.00;-1.00;101090;1305;1002914;-34
2023/01/10 12:34:48;;;;;;;9.60;7.10;;;;;;;-128.00;-1.00;-1.00;101075;1303;1002936;-31
2023/01/10 12:37:29;;;;;;;13.30;8.00;;;;;;;-128.00;-1.00;-1.00;101182;1305;1002675;-34
2023/01/10 12:39:59;;;;;;;14.30;9.00;;;;;;;-128.00;-1.00;-1.00;100859;1305;1002594;-34
2023/01/10 12:45:26;;;;;;;14.00;8.10;;;;;;;-128.00;-1.00;-1.00;101106;1306;1002884;-30
2023/01/10 12:48:11;;;;;;;14.70;8.60;;;;;;;-128.00;-1.00;-1.00;101015;1305;1004002;-35